createdAt,value
2019-05-21T00:00:52.289Z,995.10
2019-05-21T00:01:43.251Z,995.09
2019-05-21T00:02:43.328Z,995.06
2019-05-21T00:03:43.450Z,995.11
2019-05-21T00:04:43.146Z,995.12
2019-05-21T00:05:43.146Z,995.06
2019-05-21T00:06:43.153Z,995.03
2019-05-21T00:07:43.069Z,995.00
2019-05-21T00:08:43.098Z,995.00
2019-05-21T00:09:43.058Z,995.02
2019-05-21T00:10:43.026Z,995.03
2019-05-21T00:11:43.021Z,995.02
2019-05-21T00:12:43.024Z,994.99
2019-05-21T00:13:42.971Z,995.06
2019-05-21T00:14:42.955Z,995.05
2019-05-21T00:15:42.993Z,994.95
2019-05-21T00:16:51.630Z,994.98
2019-05-21T00:18:47.389Z,994.94
2019-05-21T00:19:56.103Z,994.96
2019-05-21T00:21:52.037Z,994.93
2019-05-21T00:22:51.751Z,994.95
2019-05-21T00:24:00.572Z,994.94
2019-05-21T00:26:05.444Z,994.96
2019-05-21T00:27:04.925Z,994.91
2019-05-21T00:29:00.726Z,994.91
2019-05-21T00:30:09.247Z,994.93
2019-05-21T00:32:05.056Z,994.89
2019-05-21T00:33:05.060Z,994.86
2019-05-21T00:34:05.098Z,994.89
2019-05-21T00:35:05.142Z,994.87
2019-05-21T00:36:05.000Z,994.86
2019-05-21T00:37:04.859Z,994.84
2019-05-21T00:38:04.846Z,994.85
2019-05-21T00:39:04.796Z,994.82
2019-05-21T00:40:04.787Z,994.80
2019-05-21T00:41:04.770Z,994.77
2019-05-21T00:42:04.841Z,994.73
2019-05-21T00:43:04.745Z,994.77
2019-05-21T00:44:04.723Z,994.73
2019-05-21T00:45:04.706Z,994.72
2019-05-21T00:46:04.683Z,994.76
2019-05-21T00:47:04.687Z,994.75
2019-05-21T00:48:05.886Z,994.75
2019-05-21T00:49:04.677Z,994.72
2019-05-21T00:50:04.588Z,994.74
2019-05-21T00:51:04.569Z,994.76
2019-05-21T00:52:08.435Z,994.76
2019-05-21T00:53:04.526Z,994.70
2019-05-21T00:54:04.538Z,994.70
2019-05-21T00:55:04.520Z,994.72
2019-05-21T00:56:04.492Z,994.74
2019-05-21T00:57:04.457Z,994.68
2019-05-21T00:58:04.488Z,994.67
2019-05-21T00:59:04.411Z,994.67
2019-05-21T01:00:04.465Z,994.65
2019-05-21T01:01:04.352Z,994.66
2019-05-21T01:02:04.384Z,994.68
2019-05-21T01:03:04.339Z,994.64
2019-05-21T01:04:04.304Z,994.65
2019-05-21T01:05:04.294Z,994.67
2019-05-21T01:06:04.280Z,994.64
2019-05-21T01:07:04.287Z,994.69
2019-05-21T01:08:04.232Z,994.67
2019-05-21T01:09:04.210Z,994.67
2019-05-21T01:10:04.198Z,994.72
2019-05-21T01:11:04.180Z,994.65
2019-05-21T01:12:04.172Z,994.74
2019-05-21T01:13:04.173Z,994.75
2019-05-21T01:14:04.138Z,994.68
2019-05-21T01:15:04.132Z,994.74
2019-05-21T01:16:04.120Z,994.77
2019-05-21T01:17:04.042Z,994.80
2019-05-21T01:18:04.022Z,994.77
2019-05-21T01:19:04.017Z,994.75
2019-05-21T01:20:03.992Z,994.74
2019-05-21T01:21:03.974Z,994.76
2019-05-21T01:22:03.956Z,994.72
2019-05-21T01:23:03.950Z,994.74
2019-05-21T01:24:03.934Z,994.73
2019-05-21T01:25:03.950Z,994.78
2019-05-21T01:26:03.896Z,994.74
2019-05-21T01:27:03.897Z,994.77
2019-05-21T01:28:03.842Z,994.73
2019-05-21T01:29:03.905Z,994.76
2019-05-21T01:30:03.801Z,994.75
2019-05-21T01:31:03.797Z,994.74
2019-05-21T01:32:03.789Z,994.76
2019-05-21T01:33:03.734Z,994.72
2019-05-21T01:34:03.716Z,994.76
2019-05-21T01:35:15.954Z,994.77
2019-05-21T01:36:03.674Z,994.73
2019-05-21T01:37:03.657Z,994.79
2019-05-21T01:38:03.665Z,994.76
2019-05-21T01:39:03.607Z,994.72
2019-05-21T01:40:03.602Z,994.72
2019-05-21T01:41:03.615Z,994.73
2019-05-21T01:42:03.556Z,994.70
2019-05-21T01:43:03.713Z,994.71
2019-05-21T01:44:03.545Z,994.72
2019-05-21T01:45:03.501Z,994.70
2019-05-21T01:46:03.510Z,994.67
2019-05-21T01:47:03.469Z,994.67
2019-05-21T01:48:03.446Z,994.65
2019-05-21T01:49:03.497Z,994.63
2019-05-21T01:50:03.448Z,994.63
2019-05-21T01:51:03.458Z,994.65
2019-05-21T01:52:03.382Z,994.62
2019-05-21T01:53:03.374Z,994.63
2019-05-21T01:54:03.312Z,994.59
2019-05-21T01:55:03.320Z,994.60
2019-05-21T01:56:03.453Z,994.64
2019-05-21T01:57:03.296Z,994.64
2019-05-21T01:58:03.298Z,994.65
2019-05-21T01:59:03.263Z,994.62
2019-05-21T02:00:03.207Z,994.63
2019-05-21T02:01:03.179Z,994.58
2019-05-21T02:02:03.213Z,994.68
2019-05-21T02:03:03.177Z,994.64
2019-05-21T02:04:03.129Z,994.60
2019-05-21T02:05:03.100Z,994.59
2019-05-21T02:06:03.104Z,994.64
2019-05-21T02:07:03.095Z,994.63
2019-05-21T02:08:03.071Z,994.69
2019-05-21T02:09:03.065Z,994.66
2019-05-21T02:10:03.020Z,994.67
2019-05-21T02:11:02.980Z,994.66
2019-05-21T02:12:03.005Z,994.62
2019-05-21T02:13:02.987Z,994.64
2019-05-21T02:14:02.959Z,994.68
2019-05-21T02:15:02.998Z,994.66
2019-05-21T02:16:02.943Z,994.64
2019-05-21T02:17:02.861Z,994.68
2019-05-21T02:18:02.867Z,994.68
2019-05-21T02:19:02.827Z,994.69
2019-05-21T02:20:02.818Z,994.67
2019-05-21T02:21:02.853Z,994.70
2019-05-21T02:22:02.767Z,994.71
2019-05-21T02:23:02.762Z,994.72
2019-05-21T02:24:02.789Z,994.66
2019-05-21T02:25:02.753Z,994.76
2019-05-21T02:26:02.728Z,994.74
2019-05-21T02:27:02.757Z,994.78
2019-05-21T02:28:11.298Z,994.80
2019-05-21T02:30:17.295Z,994.83
2019-05-21T02:31:08.114Z,994.86
2019-05-21T02:32:08.089Z,994.89
2019-05-21T02:33:08.057Z,994.88
2019-05-21T02:34:08.066Z,994.88
2019-05-21T02:35:08.125Z,994.88
2019-05-21T02:36:08.005Z,994.92
2019-05-21T02:37:07.966Z,994.88
2019-05-21T02:38:07.961Z,994.83
2019-05-21T02:39:07.945Z,994.86
2019-05-21T02:40:07.961Z,994.89
2019-05-21T02:41:07.884Z,994.94
2019-05-21T02:42:07.858Z,994.92
2019-05-21T02:43:07.860Z,994.91
2019-05-21T02:44:07.817Z,994.91
2019-05-21T02:45:07.832Z,994.91
2019-05-21T02:46:07.781Z,994.92
2019-05-21T02:47:07.807Z,994.89
2019-05-21T02:48:07.784Z,994.92
2019-05-21T02:49:07.736Z,994.93
2019-05-21T02:50:07.769Z,994.94
2019-05-21T02:51:07.677Z,994.91
2019-05-21T02:52:07.688Z,994.98
2019-05-21T02:53:07.635Z,994.97
2019-05-21T02:54:07.630Z,994.97
2019-05-21T02:55:07.676Z,995.00
2019-05-21T02:56:07.606Z,995.02
2019-05-21T02:57:07.559Z,995.02
2019-05-21T02:58:07.550Z,995.06
2019-05-21T02:59:07.601Z,995.10
2019-05-21T03:00:07.546Z,995.07
2019-05-21T03:01:07.520Z,995.07
2019-05-21T03:02:07.543Z,995.09
2019-05-21T03:03:07.437Z,995.13
2019-05-21T03:04:07.462Z,995.08
2019-05-21T03:05:07.411Z,995.10
2019-05-21T03:06:13.659Z,995.10
2019-05-21T03:07:07.371Z,995.11
2019-05-21T03:08:07.432Z,995.13
2019-05-21T03:09:07.375Z,995.13
2019-05-21T03:10:07.317Z,995.12
2019-05-21T03:11:07.303Z,995.10
2019-05-21T03:12:07.291Z,995.13
2019-05-21T03:13:07.247Z,995.10
2019-05-21T03:14:07.225Z,995.10
2019-05-21T03:15:07.233Z,995.12
2019-05-21T03:16:07.187Z,995.14
2019-05-21T03:17:07.232Z,995.13
2019-05-21T03:18:07.207Z,995.14
2019-05-21T03:19:07.162Z,995.20
2019-05-21T03:20:07.104Z,995.17
2019-05-21T03:21:07.136Z,995.24
2019-05-21T03:22:07.118Z,995.24
2019-05-21T03:23:07.102Z,995.23
2019-05-21T03:24:07.105Z,995.22
2019-05-21T03:25:07.047Z,995.18
2019-05-21T03:26:07.041Z,995.21
2019-05-21T03:27:07.056Z,995.22
2019-05-21T03:28:07.007Z,995.22
2019-05-21T03:29:06.951Z,995.25
2019-05-21T03:30:06.970Z,995.28
2019-05-21T03:31:06.919Z,995.25
2019-05-21T03:32:06.905Z,995.29
2019-05-21T03:33:06.936Z,995.31
2019-05-21T03:34:06.897Z,995.30
2019-05-21T03:35:06.875Z,995.27
2019-05-21T03:36:08.618Z,995.30
2019-05-21T03:37:06.806Z,995.27
2019-05-21T03:38:06.767Z,995.29
2019-05-21T03:39:06.862Z,995.20
2019-05-21T03:40:06.711Z,995.18
2019-05-21T03:41:06.719Z,995.25
2019-05-21T03:42:06.698Z,995.24
2019-05-21T03:43:06.666Z,995.24
2019-05-21T03:44:06.673Z,995.20
2019-05-21T03:45:07.821Z,995.18
2019-05-21T03:46:06.751Z,995.24
2019-05-21T03:47:06.658Z,995.22
2019-05-21T03:48:06.576Z,995.24
2019-05-21T03:49:06.617Z,995.30
2019-05-21T03:50:06.560Z,995.30
2019-05-21T03:51:06.507Z,995.24
2019-05-21T03:52:06.497Z,995.30
2019-05-21T03:53:06.460Z,995.29
2019-05-21T03:54:15.260Z,995.34
2019-05-21T03:56:11.122Z,995.31
2019-05-21T03:57:10.924Z,995.36
2019-05-21T03:58:19.505Z,995.34
2019-05-21T04:00:25.365Z,995.34
2019-05-21T04:01:15.472Z,995.40
2019-05-21T04:02:15.284Z,995.41
2019-05-21T04:03:15.299Z,995.42
2019-05-21T04:04:15.209Z,995.41
2019-05-21T04:05:15.219Z,995.44
2019-05-21T04:06:15.189Z,995.44
2019-05-21T04:07:15.160Z,995.40
2019-05-21T04:08:15.104Z,995.44
2019-05-21T04:09:15.105Z,995.41
2019-05-21T04:10:15.085Z,995.40
2019-05-21T04:11:15.052Z,995.40
2019-05-21T04:12:15.075Z,995.37
2019-05-21T04:13:15.040Z,995.34
2019-05-21T04:14:15.064Z,995.30
2019-05-21T04:15:15.000Z,995.26
2019-05-21T04:16:15.033Z,995.31
2019-05-21T04:17:14.920Z,995.30
2019-05-21T04:18:14.933Z,995.33
2019-05-21T04:19:14.908Z,995.36
2019-05-21T04:20:14.918Z,995.37
2019-05-21T04:21:14.896Z,995.36
2019-05-21T04:22:14.890Z,995.32
2019-05-21T04:23:14.826Z,995.29
2019-05-21T04:24:14.839Z,995.29
2019-05-21T04:25:14.799Z,995.30
2019-05-21T04:26:14.807Z,995.28
2019-05-21T04:27:14.751Z,995.23
2019-05-21T04:28:14.760Z,995.20
2019-05-21T04:29:14.690Z,995.11
2019-05-21T04:30:14.683Z,995.14
2019-05-21T04:31:14.682Z,995.11
2019-05-21T04:32:14.696Z,995.06
2019-05-21T04:33:14.656Z,995.07
2019-05-21T04:34:14.653Z,995.09
2019-05-21T04:35:14.592Z,995.08
2019-05-21T04:36:14.573Z,995.09
2019-05-21T04:37:17.339Z,995.12
2019-05-21T04:38:14.541Z,995.12
2019-05-21T04:39:14.522Z,995.09
2019-05-21T04:40:14.494Z,995.19
2019-05-21T04:41:14.455Z,995.16
2019-05-21T04:42:14.428Z,995.19
2019-05-21T04:43:14.443Z,995.23
2019-05-21T04:44:14.472Z,995.22
2019-05-21T04:45:14.370Z,995.23
2019-05-21T04:46:14.388Z,995.22
2019-05-21T04:47:14.494Z,995.23
2019-05-21T04:48:14.381Z,995.25
2019-05-21T04:49:14.338Z,995.28
2019-05-21T04:50:14.298Z,995.28
2019-05-21T04:51:24.118Z,995.36
2019-05-21T04:53:27.790Z,995.44
2019-05-21T04:54:27.364Z,995.47
2019-05-21T04:56:32.164Z,995.46
2019-05-21T04:57:23.192Z,995.44
2019-05-21T04:58:31.794Z,995.49
2019-05-21T05:00:37.768Z,995.41
2019-05-21T05:01:27.779Z,995.39
2019-05-21T05:02:27.454Z,995.43
2019-05-21T05:03:27.490Z,995.46
2019-05-21T05:04:27.428Z,995.42
2019-05-21T05:05:27.402Z,995.43
2019-05-21T05:06:27.377Z,995.45
2019-05-21T05:07:28.852Z,995.45
2019-05-21T05:08:27.340Z,995.43
2019-05-21T05:09:27.312Z,995.45
2019-05-21T05:10:27.279Z,995.51
2019-05-21T05:11:27.262Z,995.50
2019-05-21T05:12:27.240Z,995.56
2019-05-21T05:13:27.235Z,995.55
2019-05-21T05:14:27.197Z,995.63
2019-05-21T05:15:27.187Z,995.61
2019-05-21T05:16:27.183Z,995.62
2019-05-21T05:17:27.178Z,995.63
2019-05-21T05:18:27.117Z,995.65
2019-05-21T05:19:27.137Z,995.65
2019-05-21T05:20:27.098Z,995.67
2019-05-21T05:21:27.081Z,995.68
2019-05-21T05:22:27.036Z,995.69
2019-05-21T05:23:27.036Z,995.72
2019-05-21T05:24:26.997Z,995.71
2019-05-21T05:25:26.981Z,995.70
2019-05-21T05:26:26.958Z,995.67
2019-05-21T05:27:26.939Z,995.74
2019-05-21T05:28:35.572Z,995.69
2019-05-21T05:30:40.485Z,995.71
2019-05-21T05:31:31.508Z,995.79
2019-05-21T05:32:31.323Z,995.81
2019-05-21T05:33:31.282Z,995.74
2019-05-21T05:34:31.270Z,995.84
2019-05-21T05:35:31.285Z,995.85
2019-05-21T05:36:31.234Z,995.84
2019-05-21T05:37:43.361Z,995.83
2019-05-21T05:38:31.198Z,995.80
2019-05-21T05:39:31.160Z,995.81
2019-05-21T05:40:31.151Z,995.78
2019-05-21T05:41:31.175Z,995.84
2019-05-21T05:42:31.104Z,995.83
2019-05-21T05:43:31.120Z,995.83
2019-05-21T05:44:31.081Z,995.82
2019-05-21T05:45:31.047Z,995.79
2019-05-21T05:46:31.039Z,995.81
2019-05-21T05:47:31.033Z,995.83
2019-05-21T05:48:30.988Z,995.82
2019-05-21T05:49:30.973Z,995.84
2019-05-21T05:50:30.986Z,995.82
2019-05-21T05:51:30.950Z,995.84
2019-05-21T05:52:30.933Z,995.86
2019-05-21T05:53:30.910Z,995.90
2019-05-21T05:54:30.953Z,995.89
2019-05-21T05:55:30.861Z,995.85
2019-05-21T05:56:30.832Z,995.90
2019-05-21T05:57:30.804Z,995.85
2019-05-21T05:58:30.791Z,995.90
2019-05-21T05:59:30.769Z,995.89
2019-05-21T06:00:30.759Z,995.89
2019-05-21T06:01:39.414Z,995.91
2019-05-21T06:03:35.275Z,995.94
2019-05-21T06:04:35.501Z,995.89
2019-05-21T06:05:35.588Z,995.89
2019-05-21T06:06:35.448Z,995.86
2019-05-21T06:07:35.088Z,995.88
2019-05-21T06:08:35.094Z,995.92
2019-05-21T06:09:35.064Z,995.95
2019-05-21T06:10:35.049Z,995.97
2019-05-21T06:11:35.014Z,995.97
2019-05-21T06:12:34.986Z,995.98
2019-05-21T06:13:34.950Z,996.06
2019-05-21T06:14:34.990Z,996.03
2019-05-21T06:15:34.920Z,996.00
2019-05-21T06:16:34.911Z,996.01
2019-05-21T06:17:44.191Z,996.03
2019-05-21T06:19:39.350Z,996.07
2019-05-21T06:22:12.019Z,996.06
2019-05-21T06:23:20.557Z,996.09
2019-05-21T06:25:16.325Z,996.12
2019-05-21T06:26:24.915Z,996.12
2019-05-21T06:28:20.595Z,996.13
2019-05-21T06:29:28.994Z,996.14
2019-05-21T06:31:14.087Z,996.16
2019-05-21T06:32:13.543Z,996.17
2019-05-21T06:33:13.660Z,996.21
2019-05-21T06:34:13.654Z,996.21
2019-05-21T06:35:13.680Z,996.24
2019-05-21T06:36:13.479Z,996.24
2019-05-21T06:37:13.492Z,996.27
2019-05-21T06:38:17.550Z,996.24
2019-05-21T06:39:13.579Z,996.32
2019-05-21T06:40:13.402Z,996.29
2019-05-21T06:41:13.398Z,996.26
2019-05-21T06:42:13.325Z,996.24
2019-05-21T06:43:13.385Z,996.25
2019-05-21T06:44:13.313Z,996.27
2019-05-21T06:45:13.270Z,996.26
2019-05-21T06:46:22.272Z,996.33
2019-05-21T06:48:17.804Z,996.33
2019-05-21T06:49:26.474Z,996.33
2019-05-21T06:51:11.159Z,996.35
2019-05-21T06:52:11.059Z,996.38
2019-05-21T06:53:10.990Z,996.42
2019-05-21T06:54:10.980Z,996.46
2019-05-21T06:55:11.018Z,996.43
2019-05-21T06:56:10.914Z,996.41
2019-05-21T06:57:10.938Z,996.52
2019-05-21T06:58:10.888Z,996.48
2019-05-21T06:59:10.876Z,996.47
2019-05-21T07:00:10.830Z,996.52
2019-05-21T07:01:10.833Z,996.55
2019-05-21T07:02:10.872Z,996.55
2019-05-21T07:03:10.805Z,996.54
2019-05-21T07:04:10.754Z,996.63
2019-05-21T07:05:10.751Z,996.55
2019-05-21T07:06:10.746Z,996.55
2019-05-21T07:07:10.699Z,996.54
2019-05-21T07:08:10.735Z,996.62
2019-05-21T07:09:10.671Z,996.62
2019-05-21T07:10:10.661Z,996.59
2019-05-21T07:11:10.657Z,996.64
2019-05-21T07:12:10.651Z,996.64
2019-05-21T07:13:10.614Z,996.61
2019-05-21T07:14:10.594Z,996.63
2019-05-21T07:15:10.557Z,996.65
2019-05-21T07:16:19.424Z,996.66
2019-05-21T07:18:24.017Z,996.77
2019-05-21T07:19:15.371Z,996.76
2019-05-21T07:20:15.056Z,996.81
2019-05-21T07:21:14.896Z,996.73
2019-05-21T07:22:23.675Z,996.80
2019-05-21T07:24:28.916Z,996.74
2019-05-21T07:25:19.560Z,996.79
2019-05-21T07:26:28.597Z,996.81
2019-05-21T07:28:25.093Z,996.84
2019-05-21T07:29:33.441Z,996.82
2019-05-21T07:31:18.327Z,996.91
2019-05-21T07:32:18.179Z,996.92
2019-05-21T07:33:18.214Z,996.88
2019-05-21T07:34:18.405Z,996.89
2019-05-21T07:35:17.952Z,996.92
2019-05-21T07:36:17.963Z,996.89
2019-05-21T07:37:17.914Z,996.89
2019-05-21T07:38:17.920Z,996.91
2019-05-21T07:39:17.865Z,996.89
2019-05-21T07:40:17.909Z,996.90
2019-05-21T07:41:20.243Z,996.92
2019-05-21T07:42:17.908Z,996.96
2019-05-21T07:43:17.834Z,996.90
2019-05-21T07:44:17.787Z,996.90
2019-05-21T07:45:17.781Z,996.87
2019-05-21T07:46:17.745Z,996.94
2019-05-21T07:47:26.787Z,996.93
2019-05-21T07:49:22.398Z,996.92
2019-05-21T07:50:31.106Z,996.87
2019-05-21T07:52:26.604Z,996.91
2019-05-21T07:53:26.533Z,996.89
2019-05-21T07:54:28.144Z,996.96
2019-05-21T07:55:26.505Z,996.92
2019-05-21T07:56:36.447Z,996.95
2019-05-21T07:58:30.890Z,997.00
2019-05-21T07:59:39.572Z,997.07
2019-05-21T08:01:24.323Z,997.02
2019-05-21T08:02:24.388Z,997.14
2019-05-21T08:03:24.416Z,997.11
2019-05-21T08:04:24.154Z,997.10
2019-05-21T08:05:24.145Z,997.09
2019-05-21T08:06:24.116Z,997.11
2019-05-21T08:07:24.096Z,997.18
2019-05-21T08:08:24.066Z,997.20
2019-05-21T08:09:24.078Z,997.23
2019-05-21T08:10:24.030Z,997.25
2019-05-21T08:11:24.007Z,997.28
2019-05-21T08:12:38.178Z,997.28
2019-05-21T08:13:24.160Z,997.27
2019-05-21T08:14:23.971Z,997.32
2019-05-21T08:15:23.925Z,997.28
2019-05-21T08:16:33.385Z,997.35
2019-05-21T08:18:28.667Z,997.32
2019-05-21T08:19:37.513Z,997.33
2019-05-21T08:21:24.147Z,997.34
2019-05-21T08:22:21.976Z,997.32
2019-05-21T08:23:21.777Z,997.31
2019-05-21T08:24:30.487Z,997.36
2019-05-21T08:26:26.680Z,997.40
2019-05-21T08:27:35.913Z,997.41
2019-05-21T08:29:32.060Z,997.46
2019-05-21T08:32:36.618Z,997.47
2019-05-21T08:33:35.993Z,997.45
2019-05-21T08:34:36.258Z,997.47
2019-05-21T08:35:35.879Z,997.51
2019-05-21T08:36:35.786Z,997.48
2019-05-21T08:37:35.841Z,997.49
2019-05-21T08:38:37.207Z,997.50
2019-05-21T08:39:35.695Z,997.50
2019-05-21T08:42:16.283Z,997.55
2019-05-21T08:43:17.072Z,997.50
2019-05-21T08:44:15.728Z,997.55
2019-05-21T08:45:15.885Z,997.51
2019-05-21T08:46:24.489Z,997.54
2019-05-21T08:48:20.610Z,997.56
